Hovedside
METAR-TAF:

METAR-TAF

Lufthavner :

Oslo, Norge

Oslo lufthavn

breddegrad: 60-12N, lengdegrad: 011-05E, høyde over havet: 208 m

Gjeldene værobservasjon

Denne rapporten ble laget for 42 minutter siden, klokken 21:50 UTC
Vind 5 kt fra Nord-nordøst, skiftende mellom Nord-nordvest og Øst-nordøst
Temperatur 16°C
Luftfuktighet 63%
Trykk 1015 hPa
Sikt 10 km eller mer
ingen skyer under 1500 m og ingen bygeskyer

METAR: ENGM 242150Z 03005KT 340V060 CAVOK 16/09 Q1015

Tid: 00:32 (22:32 UTC)

Varsel

Varsel gyldig fra 24. klokken 18 UTC til 25. klokken 18 UTC
Vind 5 kt fra Øst-nordøst
Sikt 10 km eller mer
Spredte skyer i en høyde av 4000 ft
Brutte skyer i en høyde av 8000 ft
Sannsynlighet 40% :
Midlertidig
fra 25. klokken 13 UTC til 25. klokken 18 UTC
Få skyer i en høyde av 2500 ft, Bygeskyer.
Spredte skyer i en høyde av 4000 ft
regnbyger

TAF: ENGM 2418/2518 06005KT 9999 SCT040 BKN080 PROB40 TEMPO 2513/2518 SHRA FEW025CB SCT040

Værobservasjoner og værvarsel for over 4000 flyplasser (METAR- og TAF-rapporter).

Tilgjengelige stasjoner er representert av de røde og gule prikkene på kartet.

Hold musepekeren over prikken for å se navnet på stasjonen.

Klikk så for å se værobservasjoner og -varsler.

For å forandre kartet kan du klikke på den grønne knappen med svart kryss for å zoome inn, på den grønne knappen med strek for å zoome ut, eller på de grønne pilene for å se tilstøtende kart.


METAR-TAF: